sensor_id;sensor_type;location;lat;lon;timestamp;temperature;humidity
37240;DHT22;23130;48.760;9.178;2023-02-28T00:00:29;-2.50;99.90
37240;DHT22;23130;48.760;9.178;2023-02-28T00:02:55;-2.60;99.90
37240;DHT22;23130;48.760;9.178;2023-02-28T00:05:22;-2.60;99.90
37240;DHT22;23130;48.760;9.178;2023-02-28T00:07:48;-2.70;99.90
37240;DHT22;23130;48.760;9.178;2023-02-28T00:10:19;-2.60;99.90
37240;DHT22;23130;48.760;9.178;2023-02-28T00:12:47;-2.70;99.90
37240;DHT22;23130;48.760;9.178;2023-02-28T00:15:13;-2.70;99.90
37240;DHT22;23130;48.760;9.178;2023-02-28T00:17:38;-2.80;99.90
37240;DHT22;23130;48.760;9.178;2023-02-28T00:20:05;-2.80;99.90
37240;DHT22;23130;48.760;9.178;2023-02-28T00:22:34;-2.70;99.90
37240;DHT22;23130;48.760;9.178;2023-02-28T00:25:00;-2.70;99.90
37240;DHT22;23130;48.760;9.178;2023-02-28T00:27:25;-2.80;99.90
37240;DHT22;23130;48.760;9.178;2023-02-28T00:29:51;-2.90;99.90
37240;DHT22;23130;48.760;9.178;2023-02-28T00:32:16;-2.90;99.90
37240;DHT22;23130;48.760;9.178;2023-02-28T00:34:44;-2.90;99.90
37240;DHT22;23130;48.760;9.178;2023-02-28T00:37:10;-2.90;99.90
37240;DHT22;23130;48.760;9.178;2023-02-28T00:39:38;-2.90;99.90
37240;DHT22;23130;48.760;9.178;2023-02-28T00:42:05;-2.90;99.90
37240;DHT22;23130;48.760;9.178;2023-02-28T00:44:31;-2.90;99.90
37240;DHT22;23130;48.760;9.178;2023-02-28T00:46:57;-2.90;99.90
37240;DHT22;23130;48.760;9.178;2023-02-28T00:49:24;-2.90;99.90
37240;DHT22;23130;48.760;9.178;2023-02-28T00:51:50;-3.00;99.90
37240;DHT22;23130;48.760;9.178;2023-02-28T00:54:16;-3.00;99.90
37240;DHT22;23130;48.760;9.178;2023-02-28T00:56:42;-3.00;99.90
37240;DHT22;23130;48.760;9.178;2023-02-28T00:59:08;-3.00;99.90
37240;DHT22;23130;48.760;9.178;2023-02-28T01:01:34;-3.00;99.90
37240;DHT22;23130;48.760;9.178;2023-02-28T01:03:59;-3.00;99.90
37240;DHT22;23130;48.760;9.178;2023-02-28T01:06:25;-2.90;99.90
37240;DHT22;23130;48.760;9.178;2023-02-28T01:08:51;-2.90;99.90
37240;DHT22;23130;48.760;9.178;2023-02-28T01:11:17;-2.90;99.90
37240;DHT22;23130;48.760;9.178;2023-02-28T01:13:45;-2.90;99.90
37240;DHT22;23130;48.760;9.178;2023-02-28T01:16:11;-2.90;99.90
37240;DHT22;23130;48.760;9.178;2023-02-28T01:18:37;-2.90;99.90
37240;DHT22;23130;48.760;9.178;2023-02-28T01:21:05;-2.90;99.90
37240;DHT22;23130;48.760;9.178;2023-02-28T01:23:30;-3.00;99.90
37240;DHT22;23130;48.760;9.178;2023-02-28T01:25:56;-3.00;99.90
37240;DHT22;23130;48.760;9.178;2023-02-28T01:28:24;-3.10;99.90
37240;DHT22;23130;48.760;9.178;2023-02-28T01:30:50;-3.00;99.90
37240;DHT22;23130;48.760;9.178;2023-02-28T01:33:16;-3.00;99.90
37240;DHT22;23130;48.760;9.178;2023-02-28T01:35:42;-3.10;99.90
37240;DHT22;23130;48.760;9.178;2023-02-28T01:38:07;-3.10;99.90
37240;DHT22;23130;48.760;9.178;2023-02-28T01:40:33;-3.00;99.90
37240;DHT22;23130;48.760;9.178;2023-02-28T01:42:59;-3.00;99.90
37240;DHT22;23130;48.760;9.178;2023-02-28T01:45:31;-3.10;99.90
37240;DHT22;23130;48.760;9.178;2023-02-28T01:48:02;-3.10;99.90
37240;DHT22;23130;48.760;9.178;2023-02-28T01:50:36;-3.10;99.90
37240;DHT22;23130;48.760;9.178;2023-02-28T01:53:07;-3.10;99.90
37240;DHT22;23130;48.760;9.178;2023-02-28T01:55:35;-3.10;99.90
37240;DHT22;23130;48.760;9.178;2023-02-28T01:58:03;-3.10;99.90
37240;DHT22;23130;48.760;9.178;2023-02-28T02:00:30;-3.10;99.90
37240;DHT22;23130;48.760;9.178;2023-02-28T02:02:59;-3.20;99.90
37240;DHT22;23130;48.760;9.178;2023-02-28T02:05:28;-3.10;99.90
37240;DHT22;23130;48.760;9.178;2023-02-28T02:08:00;-3.10;99.90
37240;DHT22;23130;48.760;9.178;2023-02-28T02:36:00;-2.90;99.90
37240;DHT22;23130;48.760;9.178;2023-02-28T02:38:35;-2.90;99.90
37240;DHT22;23130;48.760;9.178;2023-02-28T02:41:10;-2.80;99.90
37240;DHT22;23130;48.760;9.178;2023-02-28T02:43:56;-2.80;99.90
37240;DHT22;23130;48.760;9.178;2023-02-28T02:46:35;-2.80;99.90
37240;DHT22;23130;48.760;9.178;2023-02-28T02:49:06;-2.80;99.90
37240;DHT22;23130;48.760;9.178;2023-02-28T02:51:34;-2.70;99.90
37240;DHT22;23130;48.760;9.178;2023-02-28T02:57:05;-2.70;99.90
37240;DHT22;23130;48.760;9.178;2023-02-28T02:59:35;-2.60;99.90
37240;DHT22;23130;48.760;9.178;2023-02-28T03:02:03;-2.60;99.90
37240;DHT22;23130;48.760;9.178;2023-02-28T03:04:37;-2.60;99.90
37240;DHT22;23130;48.760;9.178;2023-02-28T03:07:03;-2.60;99.90
37240;DHT22;23130;48.760;9.178;2023-02-28T03:09:33;-2.50;99.90
37240;DHT22;23130;48.760;9.178;2023-02-28T03:11:59;-2.50;99.90
37240;DHT22;23130;48.760;9.178;2023-02-28T03:25:21;-2.50;99.90
37240;DHT22;23130;48.760;9.178;2023-02-28T03:28:04;-2.50;99.90
37240;DHT22;23130;48.760;9.178;2023-02-28T03:31:03;-2.50;99.90
37240;DHT22;23130;48.760;9.178;2023-02-28T03:33:34;-2.40;99.90
37240;DHT22;23130;48.760;9.178;2023-02-28T03:36:16;-2.40;99.90
37240;DHT22;23130;48.760;9.178;2023-02-28T03:38:49;-2.30;99.90
37240;DHT22;23130;48.760;9.178;2023-02-28T03:41:26;-2.30;99.90
37240;DHT22;23130;48.760;9.178;2023-02-28T03:44:04;-2.30;99.90
37240;DHT22;23130;48.760;9.178;2023-02-28T03:46:34;-2.30;99.90
37240;DHT22;23130;48.760;9.178;2023-02-28T03:49:13;-2.40;99.90
37240;DHT22;23130;48.760;9.178;2023-02-28T03:51:41;-2.40;99.90
37240;DHT22;23130;48.760;9.178;2023-02-28T03:54:20;-2.30;99.90
37240;DHT22;23130;48.760;9.178;2023-02-28T03:56:53;-2.30;99.90
37240;DHT22;23130;48.760;9.178;2023-02-28T03:59:28;-2.30;99.90
37240;DHT22;23130;48.760;9.178;2023-02-28T04:01:54;-2.30;99.90
37240;DHT22;23130;48.760;9.178;2023-02-28T04:04:20;-2.20;99.90
37240;DHT22;23130;48.760;9.178;2023-02-28T04:06:52;-2.30;99.90
37240;DHT22;23130;48.760;9.178;2023-02-28T04:09:18;-2.30;99.90
37240;DHT22;23130;48.760;9.178;2023-02-28T04:11:50;-2.20;99.90
37240;DHT22;23130;48.760;9.178;2023-02-28T04:14:21;-2.20;99.90
37240;DHT22;23130;48.760;9.178;2023-02-28T04:16:47;-2.20;99.90
37240;DHT22;23130;48.760;9.178;2023-02-28T04:19:13;-2.20;99.90
37240;DHT22;23130;48.760;9.178;2023-02-28T04:21:41;-2.20;99.90
37240;DHT22;23130;48.760;9.178;2023-02-28T04:24:08;-2.20;99.90
37240;DHT22;23130;48.760;9.178;2023-02-28T04:26:40;-2.10;99.90
37240;DHT22;23130;48.760;9.178;2023-02-28T04:29:06;-2.10;99.90
37240;DHT22;23130;48.760;9.178;2023-02-28T04:31:35;-2.10;99.90
37240;DHT22;23130;48.760;9.178;2023-02-28T04:34:01;-2.10;99.90
37240;DHT22;23130;48.760;9.178;2023-02-28T04:36:27;-2.00;99.90
37240;DHT22;23130;48.760;9.178;2023-02-28T04:38:53;-2.00;99.90
37240;DHT22;23130;48.760;9.178;2023-02-28T04:41:20;-2.00;99.90
37240;DHT22;23130;48.760;9.178;2023-02-28T04:43:46;-2.00;99.90
37240;DHT22;23130;48.760;9.178;2023-02-28T04:46:11;-1.90;99.90
37240;DHT22;23130;48.760;9.178;2023-02-28T04:48:38;-1.90;99.90
37240;DHT22;23130;48.760;9.178;2023-02-28T04:51:10;-1.90;99.90
37240;DHT22;23130;48.760;9.178;2023-02-28T04:53:37;-1.80;99.90
37240;DHT22;23130;48.760;9.178;2023-02-28T04:56:04;-1.80;99.90
37240;DHT22;23130;48.760;9.178;2023-02-28T04:58:29;-1.90;99.90
37240;DHT22;23130;48.760;9.178;2023-02-28T05:01:04;-1.80;99.90
37240;DHT22;23130;48.760;9.178;2023-02-28T05:03:30;-1.80;99.90
37240;DHT22;23130;48.760;9.178;2023-02-28T05:05:56;-1.80;99.90
37240;DHT22;23130;48.760;9.178;2023-02-28T05:08:21;-1.70;99.90
37240;DHT22;23130;48.760;9.178;2023-02-28T05:10:47;-1.80;99.90
37240;DHT22;23130;48.760;9.178;2023-02-28T05:13:12;-1.70;99.90
37240;DHT22;23130;48.760;9.178;2023-02-28T05:15:38;-1.70;99.90
37240;DHT22;23130;48.760;9.178;2023-02-28T05:18:04;-1.70;99.90
37240;DHT22;23130;48.760;9.178;2023-02-28T05:20:29;-1.70;99.90
37240;DHT22;23130;48.760;9.178;2023-02-28T05:22:56;-1.80;99.90
37240;DHT22;23130;48.760;9.178;2023-02-28T05:25:23;-1.70;99.90
37240;DHT22;23130;48.760;9.178;2023-02-28T05:27:49;-1.70;99.90
37240;DHT22;23130;48.760;9.178;2023-02-28T05:30:15;-1.70;99.90
37240;DHT22;23130;48.760;9.178;2023-02-28T05:32:41;-1.70;99.90
37240;DHT22;23130;48.760;9.178;2023-02-28T05:35:09;-1.70;99.90
37240;DHT22;23130;48.760;9.178;2023-02-28T05:37:35;-1.70;99.90
37240;DHT22;23130;48.760;9.178;2023-02-28T05:40:02;-1.70;99.90
37240;DHT22;23130;48.760;9.178;2023-02-28T05:42:31;-1.60;99.90
37240;DHT22;23130;48.760;9.178;2023-02-28T05:44:57;-1.60;99.90
37240;DHT22;23130;48.760;9.178;2023-02-28T05:47:22;-1.60;99.90
37240;DHT22;23130;48.760;9.178;2023-02-28T05:49:48;-1.60;99.90
37240;DHT22;23130;48.760;9.178;2023-02-28T05:52:14;-1.60;99.90
37240;DHT22;23130;48.760;9.178;2023-02-28T05:54:40;-1.60;99.90
37240;DHT22;23130;48.760;9.178;2023-02-28T05:57:06;-1.60;99.90
37240;DHT22;23130;48.760;9.178;2023-02-28T05:59:32;-1.60;99.90
37240;DHT22;23130;48.760;9.178;2023-02-28T06:01:57;-1.60;99.90
37240;DHT22;23130;48.760;9.178;2023-02-28T06:04:23;-1.60;99.90
37240;DHT22;23130;48.760;9.178;2023-02-28T06:06:49;-1.60;99.90
37240;DHT22;23130;48.760;9.178;2023-02-28T06:09:15;-1.60;99.90
37240;DHT22;23130;48.760;9.178;2023-02-28T06:11:41;-1.60;99.90
37240;DHT22;23130;48.760;9.178;2023-02-28T06:14:10;-1.60;99.90
37240;DHT22;23130;48.760;9.178;2023-02-28T06:16:38;-1.50;99.90
37240;DHT22;23130;48.760;9.178;2023-02-28T06:19:04;-1.60;99.90
37240;DHT22;23130;48.760;9.178;2023-02-28T06:21:29;-1.60;99.90
37240;DHT22;23130;48.760;9.178;2023-02-28T06:23:56;-1.60;99.90
37240;DHT22;23130;48.760;9.178;2023-02-28T06:26:22;-1.60;99.90
37240;DHT22;23130;48.760;9.178;2023-02-28T06:28:48;-1.50;99.90
37240;DHT22;23130;48.760;9.178;2023-02-28T06:31:16;-1.50;99.90
37240;DHT22;23130;48.760;9.178;2023-02-28T06:33:43;-1.50;99.90
37240;DHT22;23130;48.760;9.178;2023-02-28T06:36:10;-1.50;99.90
37240;DHT22;23130;48.760;9.178;2023-02-28T06:38:36;-1.40;99.90
37240;DHT22;23130;48.760;9.178;2023-02-28T06:41:02;-1.40;99.90
37240;DHT22;23130;48.760;9.178;2023-02-28T06:43:30;-1.40;99.90
37240;DHT22;23130;48.760;9.178;2023-02-28T06:45:57;-1.40;99.90
37240;DHT22;23130;48.760;9.178;2023-02-28T06:48:23;-1.30;99.90
37240;DHT22;23130;48.760;9.178;2023-02-28T06:50:49;-1.30;99.90
37240;DHT22;23130;48.760;9.178;2023-02-28T06:53:15;-1.20;99.90
37240;DHT22;23130;48.760;9.178;2023-02-28T06:55:41;-1.20;99.90
37240;DHT22;23130;48.760;9.178;2023-02-28T06:58:07;-1.20;99.90
37240;DHT22;23130;48.760;9.178;2023-02-28T07:00:43;-1.20;99.90
37240;DHT22;23130;48.760;9.178;2023-02-28T07:03:09;-1.10;99.90
37240;DHT22;23130;48.760;9.178;2023-02-28T07:05:36;-1.10;99.90
37240;DHT22;23130;48.760;9.178;2023-02-28T07:08:03;-1.10;99.90
37240;DHT22;23130;48.760;9.178;2023-02-28T07:10:29;-1.10;99.90
37240;DHT22;23130;48.760;9.178;2023-02-28T07:12:55;-1.10;99.90
37240;DHT22;23130;48.760;9.178;2023-02-28T07:15:21;-1.00;99.90
37240;DHT22;23130;48.760;9.178;2023-02-28T07:17:46;-1.00;99.90
37240;DHT22;23130;48.760;9.178;2023-02-28T07:20:12;-1.00;99.90
37240;DHT22;23130;48.760;9.178;2023-02-28T07:22:38;-1.00;99.90
37240;DHT22;23130;48.760;9.178;2023-02-28T07:25:04;-0.90;99.90
37240;DHT22;23130;48.760;9.178;2023-02-28T07:27:30;-0.90;99.90
37240;DHT22;23130;48.760;9.178;2023-02-28T07:29:56;-0.80;99.90
37240;DHT22;23130;48.760;9.178;2023-02-28T07:32:22;-0.80;99.90
37240;DHT22;23130;48.760;9.178;2023-02-28T07:34:47;-0.70;99.90
37240;DHT22;23130;48.760;9.178;2023-02-28T07:37:14;-0.70;99.90
37240;DHT22;23130;48.760;9.178;2023-02-28T07:39:40;-0.70;99.90
37240;DHT22;23130;48.760;9.178;2023-02-28T07:42:08;-0.60;99.90
37240;DHT22;23130;48.760;9.178;2023-02-28T07:44:37;-0.60;99.90
37240;DHT22;23130;48.760;9.178;2023-02-28T07:47:07;-0.60;99.90
37240;DHT22;23130;48.760;9.178;2023-02-28T07:49:34;-0.60;99.90
37240;DHT22;23130;48.760;9.178;2023-02-28T07:51:59;-0.60;99.90
37240;DHT22;23130;48.760;9.178;2023-02-28T07:54:25;-0.50;99.90
37240;DHT22;23130;48.760;9.178;2023-02-28T07:56:50;-0.50;99.90
37240;DHT22;23130;48.760;9.178;2023-02-28T07:59:16;-0.50;99.90
37240;DHT22;23130;48.760;9.178;2023-02-28T08:01:41;-0.40;99.90
37240;DHT22;23130;48.760;9.178;2023-02-28T08:04:12;-0.40;99.90
37240;DHT22;23130;48.760;9.178;2023-02-28T08:06:37;-0.40;99.90
37240;DHT22;23130;48.760;9.178;2023-02-28T08:09:03;-0.40;99.90
37240;DHT22;23130;48.760;9.178;2023-02-28T08:11:28;-0.40;99.90
37240;DHT22;23130;48.760;9.178;2023-02-28T08:13:54;-0.30;99.90
37240;DHT22;23130;48.760;9.178;2023-02-28T08:16:20;-0.20;99.90
37240;DHT22;23130;48.760;9.178;2023-02-28T08:18:51;-0.10;99.90
37240;DHT22;23130;48.760;9.178;2023-02-28T08:21:18;-0.10;99.90
37240;DHT22;23130;48.760;9.178;2023-02-28T08:23:43;-0.10;99.90
37240;DHT22;23130;48.760;9.178;2023-02-28T08:26:12;-0.10;99.90
37240;DHT22;23130;48.760;9.178;2023-02-28T08:28:38;-0.10;99.90
37240;DHT22;23130;48.760;9.178;2023-02-28T08:31:11;-0.10;99.90
37240;DHT22;23130;48.760;9.178;2023-02-28T08:33:37;-0.10;99.90
37240;DHT22;23130;48.760;9.178;2023-02-28T08:36:05;0.00;99.90
37240;DHT22;23130;48.760;9.178;2023-02-28T08:38:31;0.00;99.90
37240;DHT22;23130;48.760;9.178;2023-02-28T08:40:58;0.00;99.90
37240;DHT22;23130;48.760;9.178;2023-02-28T08:43:24;0.10;99.90
37240;DHT22;23130;48.760;9.178;2023-02-28T08:45:53;0.10;99.90
37240;DHT22;23130;48.760;9.178;2023-02-28T08:48:19;0.10;99.90
37240;DHT22;23130;48.760;9.178;2023-02-28T08:53:22;0.10;99.90
37240;DHT22;23130;48.760;9.178;2023-02-28T08:56:16;0.10;99.90
37240;DHT22;23130;48.760;9.178;2023-02-28T08:58:42;0.20;99.90
37240;DHT22;23130;48.760;9.178;2023-02-28T09:01:11;0.20;99.90
37240;DHT22;23130;48.760;9.178;2023-02-28T09:03:38;0.30;99.90
37240;DHT22;23130;48.760;9.178;2023-02-28T09:06:04;0.30;99.90
37240;DHT22;23130;48.760;9.178;2023-02-28T09:08:30;0.30;99.90
37240;DHT22;23130;48.760;9.178;2023-02-28T09:10:57;0.30;99.90
37240;DHT22;23130;48.760;9.178;2023-02-28T09:13:24;0.30;99.90
37240;DHT22;23130;48.760;9.178;2023-02-28T09:15:50;0.30;99.90
37240;DHT22;23130;48.760;9.178;2023-02-28T09:18:16;0.40;99.90
37240;DHT22;23130;48.760;9.178;2023-02-28T09:20:42;0.50;99.90
37240;DHT22;23130;48.760;9.178;2023-02-28T09:23:10;0.50;99.90
37240;DHT22;23130;48.760;9.178;2023-02-28T09:25:36;0.70;99.90
37240;DHT22;23130;48.760;9.178;2023-02-28T09:28:03;0.70;99.90
37240;DHT22;23130;48.760;9.178;2023-02-28T09:30:29;0.70;99.90
37240;DHT22;23130;48.760;9.178;2023-02-28T09:32:55;0.90;99.90
37240;DHT22;23130;48.760;9.178;2023-02-28T09:35:22;0.90;99.90
37240;DHT22;23130;48.760;9.178;2023-02-28T09:37:49;0.90;99.90
37240;DHT22;23130;48.760;9.178;2023-02-28T09:40:15;1.00;99.90
37240;DHT22;23130;48.760;9.178;2023-02-28T09:42:46;1.10;99.90
37240;DHT22;23130;48.760;9.178;2023-02-28T09:45:35;1.00;99.90
37240;DHT22;23130;48.760;9.178;2023-02-28T09:48:07;1.00;99.90
37240;DHT22;23130;48.760;9.178;2023-02-28T09:50:40;1.20;99.90
37240;DHT22;23130;48.760;9.178;2023-02-28T09:55:50;1.30;99.90
37240;DHT22;23130;48.760;9.178;2023-02-28T09:58:26;1.30;99.90
37240;DHT22;23130;48.760;9.178;2023-02-28T10:01:03;1.40;99.90
37240;DHT22;23130;48.760;9.178;2023-02-28T10:03:36;1.40;99.90
37240;DHT22;23130;48.760;9.178;2023-02-28T10:06:14;1.30;99.90
37240;DHT22;23130;48.760;9.178;2023-02-28T10:09:00;1.40;99.90
37240;DHT22;23130;48.760;9.178;2023-02-28T10:11:29;1.50;99.90
37240;DHT22;23130;48.760;9.178;2023-02-28T10:14:12;1.50;99.90
37240;DHT22;23130;48.760;9.178;2023-02-28T10:16:59;1.50;99.90
37240;DHT22;23130;48.760;9.178;2023-02-28T10:19:34;1.70;99.90
37240;DHT22;23130;48.760;9.178;2023-02-28T10:22:23;1.90;99.90
37240;DHT22;23130;48.760;9.178;2023-02-28T10:24:51;2.00;99.90
37240;DHT22;23130;48.760;9.178;2023-02-28T10:27:25;2.00;99.90
37240;DHT22;23130;48.760;9.178;2023-02-28T10:29:56;1.90;99.90
37240;DHT22;23130;48.760;9.178;2023-02-28T10:32:31;2.10;99.90
37240;DHT22;23130;48.760;9.178;2023-02-28T10:35:17;2.00;99.90
37240;DHT22;23130;48.760;9.178;2023-02-28T10:37:46;2.30;99.90
37240;DHT22;23130;48.760;9.178;2023-02-28T10:43:02;2.60;99.90
37240;DHT22;23130;48.760;9.178;2023-02-28T10:45:33;2.80;99.90
37240;DHT22;23130;48.760;9.178;2023-02-28T10:48:05;3.00;99.90
37240;DHT22;23130;48.760;9.178;2023-02-28T10:56:05;3.20;99.90
37240;DHT22;23130;48.760;9.178;2023-02-28T11:01:20;3.40;99.90
37240;DHT22;23130;48.760;9.178;2023-02-28T11:03:47;3.30;99.90
37240;DHT22;23130;48.760;9.178;2023-02-28T11:06:16;3.20;99.90
37240;DHT22;23130;48.760;9.178;2023-02-28T11:11:43;3.10;99.90
37240;DHT22;23130;48.760;9.178;2023-02-28T11:14:20;2.80;99.90
37240;DHT22;23130;48.760;9.178;2023-02-28T11:16:46;2.40;99.90
37240;DHT22;23130;48.760;9.178;2023-02-28T11:19:20;2.20;99.90
37240;DHT22;23130;48.760;9.178;2023-02-28T11:22:00;2.10;99.90
37240;DHT22;23130;48.760;9.178;2023-02-28T11:24:42;2.00;99.90
37240;DHT22;23130;48.760;9.178;2023-02-28T11:29:56;2.00;99.90
37240;DHT22;23130;48.760;9.178;2023-02-28T11:32:23;2.00;99.90
37240;DHT22;23130;48.760;9.178;2023-02-28T11:37:34;2.40;99.90
37240;DHT22;23130;48.760;9.178;2023-02-28T11:40:00;2.80;99.90
37240;DHT22;23130;48.760;9.178;2023-02-28T11:45:34;3.30;99.90
37240;DHT22;23130;48.760;9.178;2023-02-28T11:50:56;3.30;99.90
37240;DHT22;23130;48.760;9.178;2023-02-28T11:53:50;3.00;99.90
37240;DHT22;23130;48.760;9.178;2023-02-28T12:02:29;3.30;99.90
37240;DHT22;23130;48.760;9.178;2023-02-28T12:05:21;3.50;99.90
37240;DHT22;23130;48.760;9.178;2023-02-28T12:10:53;3.60;99.90
37240;DHT22;23130;48.760;9.178;2023-02-28T12:21:56;3.60;99.90
37240;DHT22;23130;48.760;9.178;2023-02-28T12:27:17;3.70;99.90
37240;DHT22;23130;48.760;9.178;2023-02-28T12:29:49;3.90;99.90
37240;DHT22;23130;48.760;9.178;2023-02-28T12:37:37;4.00;99.90
37240;DHT22;23130;48.760;9.178;2023-02-28T12:40:11;4.00;99.90
37240;DHT22;23130;48.760;9.178;2023-02-28T12:42:42;3.90;99.90
37240;DHT22;23130;48.760;9.178;2023-02-28T12:45:24;3.70;99.90
37240;DHT22;23130;48.760;9.178;2023-02-28T12:47:58;3.70;99.90
37240;DHT22;23130;48.760;9.178;2023-02-28T12:50:26;3.70;99.90
37240;DHT22;23130;48.760;9.178;2023-02-28T12:55:46;3.80;99.90
37240;DHT22;23130;48.760;9.178;2023-02-28T12:58:34;3.80;99.90
37240;DHT22;23130;48.760;9.178;2023-02-28T13:09:40;4.10;99.90
37240;DHT22;23130;48.760;9.178;2023-02-28T13:12:15;4.20;99.90
37240;DHT22;23130;48.760;9.178;2023-02-28T13:14:42;4.30;99.90
37240;DHT22;23130;48.760;9.178;2023-02-28T13:19:37;4.40;99.90
37240;DHT22;23130;48.760;9.178;2023-02-28T13:22:03;4.40;99.90
37240;DHT22;23130;48.760;9.178;2023-02-28T13:24:41;4.30;99.90
37240;DHT22;23130;48.760;9.178;2023-02-28T13:29:39;4.20;99.90
37240;DHT22;23130;48.760;9.178;2023-02-28T13:34:36;4.40;99.90
37240;DHT22;23130;48.760;9.178;2023-02-28T14:04:09;4.90;99.90
37240;DHT22;23130;48.760;9.178;2023-02-28T14:06:37;5.00;99.90
37240;DHT22;23130;48.760;9.178;2023-02-28T14:11:42;5.00;99.90
37240;DHT22;23130;48.760;9.178;2023-02-28T14:17:06;4.90;99.90
37240;DHT22;23130;48.760;9.178;2023-02-28T14:19:34;5.00;99.90
37240;DHT22;23130;48.760;9.178;2023-02-28T14:22:32;4.90;99.90
37240;DHT22;23130;48.760;9.178;2023-02-28T14:25:10;4.70;99.90
37240;DHT22;23130;48.760;9.178;2023-02-28T14:30:56;4.70;99.90
37240;DHT22;23130;48.760;9.178;2023-02-28T14:33:48;4.80;99.90
37240;DHT22;23130;48.760;9.178;2023-02-28T14:36:27;4.80;99.90
37240;DHT22;23130;48.760;9.178;2023-02-28T14:39:11;4.80;99.90
37240;DHT22;23130;48.760;9.178;2023-02-28T14:41:39;4.80;99.90
37240;DHT22;23130;48.760;9.178;2023-02-28T14:44:23;4.80;99.90
37240;DHT22;23130;48.760;9.178;2023-02-28T14:46:52;4.90;99.90
37240;DHT22;23130;48.760;9.178;2023-02-28T14:49:31;4.90;99.90
37240;DHT22;23130;48.760;9.178;2023-02-28T14:52:22;4.90;99.90
37240;DHT22;23130;48.760;9.178;2023-02-28T14:55:00;4.90;99.90
37240;DHT22;23130;48.760;9.178;2023-02-28T14:57:32;4.80;99.90
37240;DHT22;23130;48.760;9.178;2023-02-28T15:00:13;4.90;99.90
37240;DHT22;23130;48.760;9.178;2023-02-28T15:02:40;4.80;99.90
37240;DHT22;23130;48.760;9.178;2023-02-28T15:05:16;4.80;99.90
37240;DHT22;23130;48.760;9.178;2023-02-28T15:07:45;4.70;99.90
37240;DHT22;23130;48.760;9.178;2023-02-28T15:10:13;4.70;99.90
37240;DHT22;23130;48.760;9.178;2023-02-28T15:12:40;4.70;99.90
37240;DHT22;23130;48.760;9.178;2023-02-28T15:15:17;4.70;99.90
37240;DHT22;23130;48.760;9.178;2023-02-28T15:17:52;4.70;99.90
37240;DHT22;23130;48.760;9.178;2023-02-28T15:20:18;4.70;99.90
37240;DHT22;23130;48.760;9.178;2023-02-28T15:22:46;4.70;99.90
37240;DHT22;23130;48.760;9.178;2023-02-28T15:25:16;4.70;99.90
37240;DHT22;23130;48.760;9.178;2023-02-28T15:27:47;4.70;99.90
37240;DHT22;23130;48.760;9.178;2023-02-28T15:30:29;4.70;99.90
37240;DHT22;23130;48.760;9.178;2023-02-28T15:33:22;4.70;99.90
37240;DHT22;23130;48.760;9.178;2023-02-28T15:35:48;4.60;99.90
37240;DHT22;23130;48.760;9.178;2023-02-28T15:40:45;4.60;99.90
37240;DHT22;23130;48.760;9.178;2023-02-28T15:46:13;4.60;99.90
37240;DHT22;23130;48.760;9.178;2023-02-28T15:48:51;4.50;99.90
37240;DHT22;23130;48.760;9.178;2023-02-28T15:51:37;4.50;99.90
37240;DHT22;23130;48.760;9.178;2023-02-28T15:54:06;4.50;99.90
37240;DHT22;23130;48.760;9.178;2023-02-28T15:56:37;4.50;99.90
37240;DHT22;23130;48.760;9.178;2023-02-28T15:59:06;4.50;99.90
37240;DHT22;23130;48.760;9.178;2023-02-28T16:01:34;4.50;99.90
37240;DHT22;23130;48.760;9.178;2023-02-28T16:04:20;4.40;99.90
37240;DHT22;23130;48.760;9.178;2023-02-28T16:07:12;4.30;99.90
37240;DHT22;23130;48.760;9.178;2023-02-28T16:09:32;4.20;99.90
37240;DHT22;23130;48.760;9.178;2023-02-28T16:12:02;4.20;99.90
37240;DHT22;23130;48.760;9.178;2023-02-28T16:14:29;4.10;99.90
37240;DHT22;23130;48.760;9.178;2023-02-28T16:17:04;4.00;99.90
37240;DHT22;23130;48.760;9.178;2023-02-28T16:19:32;3.90;99.90
37240;DHT22;23130;48.760;9.178;2023-02-28T16:21:58;3.90;99.90
37240;DHT22;23130;48.760;9.178;2023-02-28T16:24:23;3.90;99.90
37240;DHT22;23130;48.760;9.178;2023-02-28T16:26:52;3.70;99.90
37240;DHT22;23130;48.760;9.178;2023-02-28T16:29:24;3.60;99.90
37240;DHT22;23130;48.760;9.178;2023-02-28T16:31:50;3.40;99.90
37240;DHT22;23130;48.760;9.178;2023-02-28T16:34:16;3.30;99.90
37240;DHT22;23130;48.760;9.178;2023-02-28T16:36:41;3.40;99.90
37240;DHT22;23130;48.760;9.178;2023-02-28T16:39:07;3.40;99.90
37240;DHT22;23130;48.760;9.178;2023-02-28T16:41:36;3.30;99.90
37240;DHT22;23130;48.760;9.178;2023-02-28T16:44:03;3.20;99.90
37240;DHT22;23130;48.760;9.178;2023-02-28T16:46:34;3.00;99.90
37240;DHT22;23130;48.760;9.178;2023-02-28T16:49:00;2.90;99.90
37240;DHT22;23130;48.760;9.178;2023-02-28T16:51:26;2.70;99.90
37240;DHT22;23130;48.760;9.178;2023-02-28T16:53:53;2.70;99.90
37240;DHT22;23130;48.760;9.178;2023-02-28T16:56:23;2.70;99.90
37240;DHT22;23130;48.760;9.178;2023-02-28T16:58:50;2.60;99.90
37240;DHT22;23130;48.760;9.178;2023-02-28T17:01:17;2.60;99.90
37240;DHT22;23130;48.760;9.178;2023-02-28T17:03:47;2.50;99.90
37240;DHT22;23130;48.760;9.178;2023-02-28T17:06:20;2.30;99.90
37240;DHT22;23130;48.760;9.178;2023-02-28T17:08:48;2.30;99.90
37240;DHT22;23130;48.760;9.178;2023-02-28T17:11:13;2.10;99.90
37240;DHT22;23130;48.760;9.178;2023-02-28T17:13:39;2.00;99.90
37240;DHT22;23130;48.760;9.178;2023-02-28T17:16:05;1.90;99.90
37240;DHT22;23130;48.760;9.178;2023-02-28T17:18:30;1.90;99.90
37240;DHT22;23130;48.760;9.178;2023-02-28T17:21:00;1.70;99.90
37240;DHT22;23130;48.760;9.178;2023-02-28T17:23:26;1.70;99.90
37240;DHT22;23130;48.760;9.178;2023-02-28T17:25:51;1.70;99.90
37240;DHT22;23130;48.760;9.178;2023-02-28T17:28:21;1.70;99.90
37240;DHT22;23130;48.760;9.178;2023-02-28T17:30:47;1.70;99.90
37240;DHT22;23130;48.760;9.178;2023-02-28T17:33:14;1.50;99.90
37240;DHT22;23130;48.760;9.178;2023-02-28T17:35:39;1.40;99.90
37240;DHT22;23130;48.760;9.178;2023-02-28T17:38:08;1.20;99.90
37240;DHT22;23130;48.760;9.178;2023-02-28T17:40:39;1.10;99.90
37240;DHT22;23130;48.760;9.178;2023-02-28T17:43:04;1.10;99.90
37240;DHT22;23130;48.760;9.178;2023-02-28T17:45:30;1.20;99.90
37240;DHT22;23130;48.760;9.178;2023-02-28T17:47:55;1.20;99.90
37240;DHT22;23130;48.760;9.178;2023-02-28T17:50:21;1.20;99.90
37240;DHT22;23130;48.760;9.178;2023-02-28T17:52:47;1.10;99.90
37240;DHT22;23130;48.760;9.178;2023-02-28T17:55:13;1.00;99.90
37240;DHT22;23130;48.760;9.178;2023-02-28T17:57:39;0.90;99.90
37240;DHT22;23130;48.760;9.178;2023-02-28T18:00:07;0.80;99.90
37240;DHT22;23130;48.760;9.178;2023-02-28T18:02:33;0.80;99.90
37240;DHT22;23130;48.760;9.178;2023-02-28T18:04:59;0.80;99.90
37240;DHT22;23130;48.760;9.178;2023-02-28T18:07:25;0.90;99.90
37240;DHT22;23130;48.760;9.178;2023-02-28T18:09:50;1.00;99.90
37240;DHT22;23130;48.760;9.178;2023-02-28T18:12:16;1.10;99.90
37240;DHT22;23130;48.760;9.178;2023-02-28T18:14:42;1.10;99.90
37240;DHT22;23130;48.760;9.178;2023-02-28T18:17:09;1.10;99.90
37240;DHT22;23130;48.760;9.178;2023-02-28T18:19:37;1.10;99.90
37240;DHT22;23130;48.760;9.178;2023-02-28T18:22:03;1.00;99.90
37240;DHT22;23130;48.760;9.178;2023-02-28T18:24:31;0.90;99.90
37240;DHT22;23130;48.760;9.178;2023-02-28T18:26:57;0.90;99.90